地図

経路データ

SID SEASON NUMBER BASIN SUBBASIN NAME ISO_TIME NATURE LAT LON WMO_WIND WMO_PRES WMO_AGENCY TRACK_TYPE DIST2LAND LANDFALL IFLAG USA_AGENCY USA_ATCF_ID USA_LAT USA_LON USA_RECORD USA_STATUS USA_WIND USA_PRES USA_SSHS USA_R34_NE USA_R34_SE USA_R34_SW USA_R34_NW USA_R50_NE USA_R50_SE USA_R50_SW USA_R50_NW USA_R64_NE USA_R64_SE USA_R64_SW USA_R64_NW USA_POCI USA_ROCI USA_RMW USA_EYE TOKYO_LAT TOKYO_LON TOKYO_GRADE TOKYO_WIND TOKYO_PRES TOKYO_R50_DIR TOKYO_R50_LONG TOKYO_R50_SHORT TOKYO_R30_DIR TOKYO_R30_LONG TOKYO_R30_SHORT TOKYO_LAND CMA_LAT CMA_LON CMA_CAT CMA_WIND CMA_PRES HKO_LAT HKO_LON HKO_CAT HKO_WIND HKO_PRES NEWDELHI_LAT NEWDELHI_LON NEWDELHI_GRADE NEWDELHI_WIND NEWDELHI_PRES NEWDELHI_CI NEWDELHI_DP NEWDELHI_POCI REUNION_LAT REUNION_LON REUNION_TYPE REUNION_WIND REUNION_PRES REUNION_TNUM REUNION_CI REUNION_RMW REUNION_R34_NE REUNION_R34_SE REUNION_R34_SW REUNION_R34_NW REUNION_R50_NE REUNION_R50_SE REUNION_R50_SW REUNION_R50_NW REUNION_R64_NE REUNION_R64_SE REUNION_R64_SW REUNION_R64_NW BOM_LAT BOM_LON BOM_TYPE BOM_WIND BOM_PRES BOM_TNUM BOM_CI BOM_RMW BOM_R34_NE BOM_R34_SE BOM_R34_SW BOM_R34_NW BOM_R50_NE BOM_R50_SE BOM_R50_SW BOM_R50_NW BOM_R64_NE BOM_R64_SE BOM_R64_SW BOM_R64_NW BOM_ROCI BOM_POCI BOM_EYE BOM_POS_METHOD BOM_PRES_METHOD NADI_LAT NADI_LON NADI_CAT NADI_WIND NADI_PRES WELLINGTON_LAT WELLINGTON_LON WELLINGTON_WIND WELLINGTON_PRES DS824_LAT DS824_LON DS824_STAGE DS824_WIND DS824_PRES TD9636_LAT TD9636_LON TD9636_STAGE TD9636_WIND TD9636_PRES TD9635_LAT TD9635_LON TD9635_WIND TD9635_PRES TD9635_ROCI NEUMANN_LAT NEUMANN_LON NEUMANN_CLASS NEUMANN_WIND NEUMANN_PRES MLC_LAT MLC_LON MLC_CLASS MLC_WIND MLC_PRES USA_GUST BOM_GUST BOM_GUST_PER REUNION_GUST REUNION_GUST_PER USA_SEAHGT USA_SEARAD_NE USA_SEARAD_SE USA_SEARAD_SW USA_SEARAD_NW STORM_SPEED STORM_DIR
1913058S16066 1913 19 SI MM NOT_NAMED 1913-02-26 12:00:00 NR -16.3000 66.3000 main 1002 993 __________O___ -1 -16.3000 66.3000 2 3 257
1913058S16066 1913 19 SI MM NOT_NAMED 1913-02-26 15:00:00 NR -16.3297 66.1687 main 993 969 __________P___ -1 -16.3297 66.1687 2 3 255
1913058S16066 1913 19 SI MM NOT_NAMED 1913-02-26 18:00:00 NR -16.3674 66.0299 main 969 959 __________P___ -1 -16.3674 66.0299 2 3 252
1913058S16066 1913 19 SI MM NOT_NAMED 1913-02-26 21:00:00 NR -16.4215 65.8762 main 959 935 __________P___ -1 -16.4215 65.8762 2 3 247
1913058S16066 1913 19 SI MM NOT_NAMED 1913-02-27 00:00:00 TS -16.5000 65.7000 main 935 911 _________OO___ -1 -16.5000 65.7000 TC 35 -16.5000 65.7000 2 4 244
1913058S16066 1913 19 SI MM NOT_NAMED 1913-02-27 03:00:00 TS -16.5994 65.5005 main 911 887 _________PP___ -1 -16.5800 65.5050 TC 35 -16.6092 65.4982 2 5 240
1913058S16066 1913 19 SI MM NOT_NAMED 1913-02-27 06:00:00 TS -16.7272 65.2915 main 887 858 _________OP___ -1 -16.7000 65.3000 TC 35 -16.7477 65.2851 2 5 233
1913058S16066 1913 19 SI MM NOT_NAMED 1913-02-27 09:00:00 TS -16.8987 65.0823 main 858 828 _________PP___ -1 -16.8850 65.0851 TC 35 -16.9123 65.0795 2 5 225
1913058S16066 1913 19 SI MM NOT_NAMED 1913-02-27 12:00:00 TS -17.1000 64.9000 main 828 809 _________OO___ -1 -17.1000 64.9000 TC 35 -17.1000 64.9000 2 5 216
1913058S16066 1913 19 SI MM NOT_NAMED 1913-02-27 15:00:00 TS -17.2979 64.7740 main 809 790 _________PP___ -1 -17.2925 64.7849 TC 35 -17.3033 64.7631 2 5 207
1913058S16066 1913 19 SI MM NOT_NAMED 1913-02-27 18:00:00 TS -17.5137 64.6775 main 790 771 _________OP___ -1 -17.5000 64.7000 TC 35 -17.5274 64.6549 2 5 202
1913058S16066 1913 19 SI MM NOT_NAMED 1913-02-27 21:00:00 TS -17.7564 64.5809 main 767 749 _________PP___ -1 -17.7500 64.5925 TC 35 -17.7628 64.5693 2 5 199
1913058S16066 1913 19 SI MM NOT_NAMED 1913-02-28 00:00:00 TS -18.0000 64.5000 main 749 731 _________OO___ -1 -18.0000 64.5000 TC 35 -18.0000 64.5000 2 5 196
1913058S16066 1913 19 SI MM NOT_NAMED 1913-02-28 03:00:00 TS -18.2104 64.4430 main 731 724 _________PP___ -1 -18.2000 64.4424 TC 35 -18.2209 64.4435 2 4 193
1913058S16066 1913 19 SI MM NOT_NAMED 1913-02-28 06:00:00 TS -18.4212 64.3998 main 724 717 _________OP___ -1 -18.4000 64.4000 TC 35 -18.4424 64.3997 2 5 191
1913058S16066 1913 19 SI MM NOT_NAMED 1913-02-28 09:00:00 TS -18.6551 64.3530 main 714 698 _________PP___ -1 -18.6425 64.3500 TC 35 -18.6678 64.3560 2 5 191
1913058S16066 1913 19 SI MM NOT_NAMED 1913-02-28 12:00:00 TS -18.9000 64.3000 main 698 693 _________OO___ -1 -18.9000 64.3000 TC 35 -18.9000 64.3000 2 5 190
1913058S16066 1913 19 SI MM NOT_NAMED 1913-02-28 15:00:00 TS -19.1483 64.2618 main 693 676 _________PP___ -1 -19.1500 64.2649 TC 35 -19.1466 64.2586 2 5 191
1913058S16066 1913 19 SI MM NOT_NAMED 1913-02-28 18:00:00 TS -19.3997 64.1984 main 676 663 _________OP___ -1 -19.4000 64.2000 TC 35 -19.3995 64.1968 2 5 198
1913058S16066 1913 19 SI MM NOT_NAMED 1913-02-28 21:00:00 TS -19.6513 64.0907 main 661 638 _________PP___ -1 -19.6499 64.0949 TC 35 -19.6527 64.0866 2 6 209
1913058S16066 1913 19 SI MM NOT_NAMED 1913-03-01 00:00:00 TS -19.9000 63.9000 main 638 605 _________OO___ -1 -19.9000 63.9000 TC 35 -19.9000 63.9000 2 7 223
1913058S16066 1913 19 SI MM NOT_NAMED 1913-03-01 03:00:00 TS -20.1470 63.5979 main 605 563 _________PP___ -1 -20.1575 63.5875 TC 35 -20.1365 63.6083 2 8 233
1913058S16066 1913 19 SI MM NOT_NAMED 1913-03-01 06:00:00 TS -20.3827 63.2201 main 563 521 _________OP___ -1 -20.4000 63.2000 TC 35 -20.3654 63.2402 2 9 238
1913058S16066 1913 19 SI MM NOT_NAMED 1913-03-01 09:00:00 TS -20.5970 62.8172 main 521 482 _________PP___ -1 -20.6075 62.8074 TC 35 -20.5865 62.8270 2 9 241
1913058S16066 1913 19 SI MM NOT_NAMED 1913-03-01 12:00:00 TS -20.8000 62.4000 main 482 443 _________OO___ -1 -20.8000 62.4000 TC 35 -20.8000 62.4000 2 9 242
1913058S16066 1913 19 SI MM NOT_NAMED 1913-03-01 15:00:00 TS -21.0014 62.0013 main 443 407 _________PP___ -1 -20.9999 61.9999 TC 35 -21.0030 62.0027 2 8 242
1913058S16066 1913 19 SI MM NOT_NAMED 1913-03-01 18:00:00 TS -21.1999 61.5997 main 407 374 _________OP___ -1 -21.2000 61.6000 TC 35 -21.1998 61.5995 2 8 242
1913058S16066 1913 19 SI MM NOT_NAMED 1913-03-01 21:00:00 TS -21.3983 61.1982 main 374 343 _________PP___ -1 -21.3999 61.1999 TC 35 -21.3967 61.1965 2 8 242
1913058S16066 1913 19 SI MM NOT_NAMED 1913-03-02 00:00:00 TS -21.6000 60.8000 main 343 315 _________OO___ -1 -21.6000 60.8000 TC 35 -21.6000 60.8000 2 8 242
1913058S16066 1913 19 SI MM NOT_NAMED 1913-03-02 03:00:00 TS -21.7928 60.4007 main 315 291 _________PP___ -1 -21.7925 60.3924 TC 35 -21.7932 60.4090 2 8 241
1913058S16066 1913 19 SI MM NOT_NAMED 1913-03-02 06:00:00 TS -21.9986 60.0133 main 291 281 _________OP___ -1 -22.0000 60.0000 TC 35 -21.9973 60.0266 2 8 238
1913058S16066 1913 19 SI MM NOT_NAMED 1913-03-02 09:00:00 TS -22.2275 59.6490 main 273 273 _________PP___ -1 -22.2274 59.6423 TC 35 -22.2277 59.6558 2 8 233
1913058S16066 1913 19 SI MM NOT_NAMED 1913-03-02 12:00:00 TS -22.5000 59.3000 main 278 275 _________OO___ -1 -22.5000 59.3000 TC 35 -22.5000 59.3000 2 9 227
1913058S16066 1913 19 SI MM NOT_NAMED 1913-03-02 15:00:00 TS -22.8262 58.9516 main 290 285 _________PP___ -1 -22.8275 58.9424 TC 35 -22.8249 58.9608 2 9 222
1913058S16066 1913 19 SI MM NOT_NAMED 1913-03-02 18:00:00 TS -23.1965 58.6172 main 315 315 _________OP___ -1 -23.2000 58.6000 TC 35 -23.1929 58.6344 2 10 218
1913058S16066 1913 19 SI MM NOT_NAMED 1913-03-02 21:00:00 TS -23.5923 58.3030 main 352 352 _________PP___ -1 -23.5951 58.2903 TC 35 -23.5895 58.3158 2 10 215
1913058S16066 1913 19 SI MM NOT_NAMED 1913-03-03 00:00:00 TS -24.0000 58.0000 main 376 _________OO___ -1 -24.0000 58.0000 TC 35 -24.0000 58.0000 2 10 214

IBTrACS Databaseについて

本データベースは、米国NOAAが公開する1842年以降の世界の熱帯低気圧のベストトラックデータアーカイブInternational Best Track Archive for Climate Stewardship (IBTrACS)を、ウェブで閲覧しやすい形式に変換したものです。

最終更新日:2021-10-21